Guaramirim, Brazil
Current Conditions -  °F | °C
As of 7:00 AM on Monday 20 Oct 2014 (Local Time) from SBJV Reporting Station
Overcast Overcast  
Wind Chill: 68°   Ceiling: 4000
Heat Index: 68°   Visibility: 6mi
Dew Point: 68°   Wind: 3mph
Humidity: 100%   Direction: 320°NW
Pressure: 30"   Gusts: NA
Location:  26.47°S, 49°W
Report Text: SBJV 201000Z 32003KT 9999 SCT013 OVC040 20/20 Q1016
Loading
Personal Weather Stations






























Interactive Weather Map
Tropical Storm Tracking
New forecast layout! Learn more

10-Day Weather Forecast

Advertisements
Track Severe Weather on mobile